Time;durP1;ratioP1;P1;durP2;ratioP2;P2;SDS_P1;SDS_P2;PMS_P1;PMS_P2;Temp;Humidity;BMP_temperature;BMP_pressure;BME280_temperature;BME280_humidity;BME280_pressure;Samples;Min_cycle;Max_cycle;Signal;HPM_P1;HPM_P2
2022/05/22 00:00:16;;;;;;;5.77;5.17;;;12.90;99.90;;;;;;5068534;28;20498;-37
2022/05/22 00:02:42;;;;;;;8.37;5.50;;;12.90;99.90;;;;;;5068570;28;20431;-37
2022/05/22 00:05:11;;;;;;;7.50;5.57;;;12.90;99.90;;;;;;5068768;28;20193;-37
2022/05/22 00:07:37;;;;;;;6.43;5.70;;;12.90;99.90;;;;;;5054170;28;20441;-37
2022/05/22 00:10:04;;;;;;;10.50;5.60;;;12.90;99.90;;;;;;5068424;28;20431;-37
2022/05/22 00:12:30;;;;;;;8.53;5.70;;;13.00;99.90;;;;;;5068384;28;20786;-37
2022/05/22 00:14:55;;;;;;;10.23;6.90;;;13.10;99.90;;;;;;5068453;28;20426;-37
2022/05/22 00:17:21;;;;;;;8.47;5.87;;;13.10;99.90;;;;;;5067585;28;20192;-37
2022/05/22 00:19:47;;;;;;;6.07;5.57;;;13.20;99.90;;;;;;5068603;28;20200;-37
2022/05/22 00:22:13;;;;;;;6.63;5.50;;;13.30;99.90;;;;;;5058664;28;20217;-37
2022/05/22 00:24:38;;;;;;;8.90;6.47;;;13.30;99.90;;;;;;5068330;28;20264;-38
2022/05/22 00:27:05;;;;;;;9.07;5.70;;;13.40;99.90;;;;;;5064914;28;20185;-38
2022/05/22 00:29:31;;;;;;;9.87;6.00;;;13.40;99.90;;;;;;5068209;28;20655;-37
2022/05/22 00:31:57;;;;;;;10.20;6.50;;;13.50;99.90;;;;;;5071451;28;20422;-37
2022/05/22 00:34:23;;;;;;;9.03;6.33;;;13.50;99.90;;;;;;5071927;28;20434;-37
2022/05/22 00:36:49;;;;;;;8.30;6.00;;;13.50;99.90;;;;;;5062302;28;20802;-37
2022/05/22 00:39:15;;;;;;;8.43;6.20;;;13.50;99.90;;;;;;5069738;28;20468;-37
2022/05/22 00:41:46;;;;;;;8.90;6.10;;;13.50;99.90;;;;;;5071660;28;20197;-37
2022/05/22 00:44:11;;;;;;;7.90;6.73;;;13.40;99.90;;;;;;5071862;28;20560;-37
2022/05/22 00:46:37;;;;;;;8.37;6.10;;;13.40;99.90;;;;;;5071304;28;20419;-37
2022/05/22 00:49:22;;;;;;;8.40;6.40;;;13.40;99.90;;;;;;5070519;28;20181;-37
2022/05/22 00:51:49;;;;;;;9.33;6.87;;;13.40;99.90;;;;;;5065165;28;20212;-37
2022/05/22 00:54:42;;;;;;;8.40;6.37;;;13.40;99.90;;;;;;5071340;28;20944;-37
2022/05/22 00:57:15;;;;;;;6.80;6.10;;;13.40;99.90;;;;;;5068664;28;20581;-37
2022/05/22 00:59:46;;;;;;;11.80;5.67;;;13.50;99.90;;;;;;5071465;28;20444;-37
2022/05/22 01:02:15;;;;;;;8.07;5.30;;;13.50;99.90;;;;;;5071471;28;21139;-37
2022/05/22 01:04:42;;;;;;;8.30;5.33;;;13.50;99.90;;;;;;5071192;28;20870;-38
2022/05/22 01:07:08;;;;;;;6.23;4.73;;;13.50;99.90;;;;;;5061613;28;20444;-37
2022/05/22 01:09:35;;;;;;;7.03;4.90;;;13.40;99.90;;;;;;5070912;28;20426;-37
2022/05/22 01:12:06;;;;;;;4.87;4.00;;;13.50;99.90;;;;;;5069029;28;20427;-37
2022/05/22 01:14:34;;;;;;;7.77;4.60;;;13.50;99.90;;;;;;5071026;28;20434;-37
2022/05/22 01:17:10;;;;;;;7.60;4.27;;;13.50;99.90;;;;;;5070717;28;20424;-37
2022/05/22 01:19:37;;;;;;;8.03;4.00;;;13.40;99.90;;;;;;5071173;28;20564;-37
2022/05/22 01:22:08;;;;;;;6.80;3.73;;;13.40;99.90;;;;;;5061932;28;20503;-37
2022/05/22 01:24:35;;;;;;;7.97;4.30;;;13.50;99.90;;;;;;5070622;28;20542;-37
2022/05/22 01:27:03;;;;;;;6.20;4.30;;;13.50;99.90;;;;;;5070515;28;20812;-37
2022/05/22 01:29:29;;;;;;;7.50;4.10;;;13.50;99.90;;;;;;5071078;28;20422;-37
2022/05/22 01:31:54;;;;;;;6.20;4.13;;;13.50;99.90;;;;;;5070593;28;20569;-37
2022/05/22 01:34:20;;;;;;;5.70;4.40;;;13.40;99.90;;;;;;5071179;28;20193;-37
2022/05/22 01:36:46;;;;;;;9.87;4.40;;;13.40;99.90;;;;;;5063396;28;20271;-37
2022/05/22 01:39:12;;;;;;;6.90;4.63;;;13.40;99.90;;;;;;5067809;28;20469;-37
2022/05/22 01:41:38;;;;;;;5.87;4.33;;;13.30;99.90;;;;;;5069804;28;20672;-37
2022/05/22 01:44:04;;;;;;;4.53;4.10;;;13.40;99.90;;;;;;5070444;28;20945;-37
2022/05/22 01:46:29;;;;;;;7.43;3.93;;;13.40;99.90;;;;;;5070339;28;20761;-37
2022/05/22 01:48:56;;;;;;;7.33;4.43;;;13.30;99.90;;;;;;5069053;28;20415;-37
2022/05/22 01:51:23;;;;;;;5.90;3.87;;;13.20;99.90;;;;;;5067706;28;20198;-37
2022/05/22 01:53:49;;;;;;;6.30;4.23;;;13.10;99.90;;;;;;5066466;28;20480;-37
2022/05/22 01:56:14;;;;;;;4.30;3.90;;;12.90;99.90;;;;;;5070216;28;20567;-37
2022/05/22 01:58:40;;;;;;;6.60;4.50;;;12.70;99.90;;;;;;5069959;28;20740;-37
2022/05/22 02:01:08;;;;;;;8.30;4.30;;;12.60;99.90;;;;;;5069933;28;20763;-37
2022/05/22 02:03:34;;;;;;;7.47;4.87;;;12.50;99.90;;;;;;5070460;28;20192;-37
2022/05/22 02:06:00;;;;;;;8.13;4.77;;;12.50;99.90;;;;;;5070062;28;20498;-37
2022/05/22 02:08:26;;;;;;;6.57;4.70;;;12.50;99.90;;;;;;5061437;28;20525;-37
2022/05/22 02:10:58;;;;;;;6.47;4.33;;;12.50;99.90;;;;;;5070058;28;20187;-37
2022/05/22 02:13:28;;;;;;;6.53;4.90;;;12.50;99.90;;;;;;5069140;28;20817;-37
2022/05/22 02:15:54;;;;;;;6.67;4.47;;;12.40;99.90;;;;;;5070061;28;20497;-37
2022/05/22 02:18:20;;;;;;;7.67;4.93;;;12.30;99.90;;;;;;5069210;28;20489;-37
2022/05/22 02:20:47;;;;;;;8.73;4.90;;;12.50;99.90;;;;;;5070020;28;20451;-37
2022/05/22 02:23:15;;;;;;;8.47;4.73;;;12.50;99.90;;;;;;5056878;28;20493;-37
2022/05/22 02:25:44;;;;;;;5.43;4.60;;;12.50;99.90;;;;;;5069781;28;20447;-37
2022/05/22 02:28:14;;;;;;;7.87;5.03;;;12.50;99.90;;;;;;5068863;28;20510;-37
2022/05/22 02:30:42;;;;;;;6.60;5.90;;;12.50;99.90;;;;;;5069657;28;20427;-37
2022/05/22 02:33:07;;;;;;;6.60;5.90;;;12.60;99.90;;;;;;5069709;28;20431;-37
2022/05/22 02:35:33;;;;;;;7.30;4.97;;;12.60;99.90;;;;;;5085200;28;20427;-37
2022/05/22 02:38:00;;;;;;;7.30;5.20;;;12.60;99.90;;;;;;5055420;28;20718;-37
2022/05/22 02:40:28;;;;;;;9.10;5.53;;;12.60;99.90;;;;;;5067982;28;20181;-37
2022/05/22 02:42:55;;;;;;;9.97;5.73;;;12.60;99.90;;;;;;5069816;28;20463;-37
2022/05/22 02:45:24;;;;;;;7.17;5.67;;;12.60;99.90;;;;;;5069643;28;20793;-37
2022/05/22 02:47:50;;;;;;;8.50;5.20;;;12.60;99.90;;;;;;5067889;28;20481;-37
2022/05/22 02:50:18;;;;;;;7.53;5.50;;;12.50;99.90;;;;;;5069382;28;20888;-37
2022/05/22 02:52:44;;;;;;;8.80;6.20;;;12.40;99.90;;;;;;5059985;28;20431;-37
2022/05/22 02:55:10;;;;;;;12.30;6.60;;;12.40;99.90;;;;;;5080662;28;20442;-37
2022/05/22 02:57:38;;;;;;;7.50;5.70;;;12.50;99.90;;;;;;5068825;28;20239;-37
2022/05/22 03:00:08;;;;;;;8.10;6.43;;;12.40;99.90;;;;;;5069116;28;20196;-37
2022/05/22 03:02:34;;;;;;;8.13;6.47;;;12.30;99.90;;;;;;5069476;28;20479;-37
2022/05/22 03:05:00;;;;;;;7.30;5.73;;;12.30;99.90;;;;;;5069002;28;20435;-37
2022/05/22 03:07:25;;;;;;;10.80;6.80;;;12.30;99.90;;;;;;5078408;28;20185;-37
2022/05/22 03:09:51;;;;;;;7.20;5.57;;;12.20;99.90;;;;;;5066898;28;20242;-37
2022/05/22 03:12:22;;;;;;;10.63;6.83;;;12.20;99.90;;;;;;5069211;28;20255;-36
2022/05/22 03:14:51;;;;;;;8.97;6.50;;;12.20;99.90;;;;;;5069094;28;20189;-37
2022/05/22 03:17:17;;;;;;;8.67;7.13;;;12.30;99.90;;;;;;5068417;28;20501;-37
2022/05/22 03:19:43;;;;;;;9.10;7.03;;;12.30;99.90;;;;;;5068962;28;20773;-37
2022/05/22 03:22:10;;;;;;;10.17;7.50;;;12.30;99.90;;;;;;5063693;28;20468;-37
2022/05/22 03:24:37;;;;;;;9.27;7.10;;;12.30;99.90;;;;;;5062180;28;20183;-37
2022/05/22 03:27:10;;;;;;;8.60;7.73;;;12.40;99.90;;;;;;5068224;28;20427;-37
2022/05/22 03:29:36;;;;;;;9.63;7.57;;;12.50;99.90;;;;;;5068817;28;20433;-37
2022/05/22 03:32:03;;;;;;;8.93;8.03;;;12.50;99.90;;;;;;5068907;28;20426;-37
2022/05/22 03:34:28;;;;;;;10.33;7.70;;;12.60;99.90;;;;;;5068890;28;20411;-37
2022/05/22 03:36:54;;;;;;;10.57;8.00;;;12.50;99.90;;;;;;5066533;28;20914;-37
2022/05/22 03:39:20;;;;;;;9.80;8.40;;;12.60;99.90;;;;;;5059804;28;20644;-37
2022/05/22 03:41:46;;;;;;;11.23;8.50;;;12.60;99.90;;;;;;5068629;28;20216;-37
2022/05/22 03:44:12;;;;;;;10.33;8.30;;;12.70;99.90;;;;;;5069036;28;20228;-37
2022/05/22 03:46:37;;;;;;;12.53;7.40;;;12.60;99.90;;;;;;5068091;28;20473;-37
2022/05/22 03:49:03;;;;;;;13.53;7.67;;;12.60;99.90;;;;;;5067716;28;20185;-37
2022/05/22 03:51:29;;;;;;;16.00;7.87;;;12.60;99.90;;;;;;5068379;28;20193;-37
2022/05/22 03:53:54;;;;;;;9.10;7.80;;;12.60;99.90;;;;;;5054382;28;20926;-37
2022/05/22 03:56:21;;;;;;;13.03;8.27;;;12.60;99.90;;;;;;5068391;28;20213;-37
2022/05/22 03:58:47;;;;;;;10.07;7.77;;;12.60;99.90;;;;;;5068050;28;20217;-37
2022/05/22 04:01:13;;;;;;;9.70;7.33;;;12.60;99.90;;;;;;5068554;28;20512;-38
2022/05/22 04:03:39;;;;;;;10.13;7.40;;;12.50;99.90;;;;;;5068645;28;21131;-38
2022/05/22 04:06:07;;;;;;;11.20;8.07;;;12.40;99.90;;;;;;5070386;28;20639;-38
2022/05/22 04:08:33;;;;;;;9.23;8.33;;;12.50;99.90;;;;;;5063220;28;20436;-38
2022/05/22 04:11:13;;;;;;;10.60;8.30;;;12.40;99.90;;;;;;5072381;28;20480;-38
2022/05/22 04:13:39;;;;;;;10.00;8.03;;;12.40;99.90;;;;;;5072109;28;20415;-38
2022/05/22 04:16:06;;;;;;;9.90;7.80;;;12.40;99.90;;;;;;5072311;28;20419;-38
2022/05/22 04:18:32;;;;;;;10.90;8.67;;;12.40;99.90;;;;;;5071498;28;20771;-38
2022/05/22 04:20:58;;;;;;;13.70;8.80;;;12.30;99.90;;;;;;5072128;28;20495;-38
2022/05/22 04:26:08;;;;;;;10.17;8.43;;;12.40;99.90;;;;;;5072100;28;20192;-38
2022/05/22 04:28:34;;;;;;;10.90;8.33;;;12.40;99.90;;;;;;5071591;28;20534;-38
2022/05/22 04:31:03;;;;;;;9.20;7.90;;;12.40;99.90;;;;;;5072034;28;20582;-38
2022/05/22 04:33:30;;;;;;;9.50;8.50;;;12.40;99.90;;;;;;5072148;28;20422;-38
2022/05/22 04:35:56;;;;;;;10.83;8.90;;;12.50;99.90;;;;;;5072207;28;20458;-38
2022/05/22 04:38:22;;;;;;;13.47;8.73;;;12.50;99.90;;;;;;5061132;28;21002;-38
2022/05/22 04:41:00;;;;;;;9.23;8.23;;;12.60;99.90;;;;;;5069194;28;20534;-38
2022/05/22 04:43:28;;;;;;;10.43;8.10;;;12.70;99.90;;;;;;5071592;28;20445;-38
2022/05/22 04:45:53;;;;;;;15.50;9.80;;;12.70;99.90;;;;;;5071789;28;20433;-38
2022/05/22 04:48:21;;;;;;;14.40;9.37;;;12.80;99.90;;;;;;5069718;28;20419;-38
2022/05/22 04:50:47;;;;;;;13.90;8.87;;;12.80;99.90;;;;;;5071936;28;20455;-38
2022/05/22 04:53:15;;;;;;;12.77;8.67;;;12.70;99.90;;;;;;5063007;28;20436;-38
2022/05/22 04:55:41;;;;;;;10.40;8.40;;;12.70;99.90;;;;;;5063871;28;20442;-38
2022/05/22 04:58:07;;;;;;;10.67;8.03;;;12.70;99.90;;;;;;5070705;28;20922;-38
2022/05/22 05:00:33;;;;;;;11.27;8.00;;;12.80;99.90;;;;;;5071412;28;20735;-38
2022/05/22 05:02:58;;;;;;;8.90;7.63;;;12.80;99.90;;;;;;5071629;28;20319;-38
2022/05/22 05:05:24;;;;;;;10.83;8.43;;;12.80;99.90;;;;;;5086972;28;20428;-38
2022/05/22 05:07:49;;;;;;;10.87;7.83;;;12.90;99.90;;;;;;5066879;28;20191;-38
2022/05/22 05:10:15;;;;;;;10.30;7.17;;;12.90;99.90;;;;;;5078238;28;20188;-38
2022/05/22 05:12:43;;;;;;;8.53;7.73;;;13.00;99.90;;;;;;5071163;28;20204;-39
2022/05/22 05:15:12;;;;;;;9.57;7.00;;;13.20;99.90;;;;;;5058133;28;20307;-38
2022/05/22 05:17:40;;;;;;;12.00;7.17;;;13.20;99.90;;;;;;5070738;28;20427;-38
2022/05/22 05:20:06;;;;;;;9.07;7.83;;;13.30;99.90;;;;;;5071272;28;20435;-38
2022/05/22 05:22:32;;;;;;;8.60;7.10;;;13.40;99.90;;;;;;5070184;28;20520;-38
2022/05/22 05:24:59;;;;;;;7.93;7.13;;;13.40;99.90;;;;;;5061361;28;20681;-38
2022/05/22 05:27:25;;;;;;;11.10;7.53;;;13.50;99.90;;;;;;5070103;28;20855;-38
2022/05/22 05:29:51;;;;;;;9.83;7.07;;;13.50;99.90;;;;;;5071136;28;20923;-38
2022/05/22 05:32:20;;;;;;;11.87;7.53;;;13.50;99.90;;;;;;5071130;28;20561;-38
2022/05/22 05:34:46;;;;;;;9.53;7.27;;;13.50;99.90;;;;;;5070991;28;20761;-38
2022/05/22 05:37:11;;;;;;;9.50;7.03;;;13.60;99.90;;;;;;5070276;28;20431;-38
2022/05/22 05:39:37;;;;;;;9.97;6.50;;;13.60;99.90;;;;;;5065346;28;20177;-38
2022/05/22 05:42:03;;;;;;;9.73;7.67;;;13.60;99.90;;;;;;5068930;28;20223;-38
2022/05/22 05:44:29;;;;;;;12.40;7.60;;;13.70;99.90;;;;;;5071061;28;20189;-38
2022/05/22 05:46:54;;;;;;;10.33;7.20;;;13.80;99.90;;;;;;5070077;28;20442;-38
2022/05/22 05:49:20;;;;;;;9.17;6.87;;;13.90;99.90;;;;;;5068092;28;20272;-38
2022/05/22 05:51:46;;;;;;;11.07;7.80;;;14.00;99.90;;;;;;5070501;28;20185;-38
2022/05/22 05:54:12;;;;;;;8.60;7.63;;;14.20;99.90;;;;;;5061606;28;20235;-38
2022/05/22 05:56:40;;;;;;;9.80;7.80;;;14.40;99.90;;;;;;5069611;28;20266;-38
2022/05/22 05:59:06;;;;;;;8.80;7.30;;;14.50;99.90;;;;;;5070438;28;20427;-38
2022/05/22 06:01:33;;;;;;;8.17;7.13;;;14.60;99.90;;;;;;5070231;28;20562;-38
2022/05/22 06:03:59;;;;;;;11.10;7.67;;;14.70;99.90;;;;;;5069919;28;20785;-38
2022/05/22 06:06:25;;;;;;;12.80;9.10;;;14.90;99.90;;;;;;5070169;28;20556;-38
2022/05/22 06:08:51;;;;;;;12.37;9.57;;;15.00;99.90;;;;;;5063072;28;20447;-38
2022/05/22 06:11:17;;;;;;;12.10;9.20;;;15.10;99.90;;;;;;5067233;28;20279;-38
2022/05/22 06:13:42;;;;;;;11.47;9.90;;;15.10;99.90;;;;;;5070208;28;20506;-38
2022/05/22 06:16:08;;;;;;;11.57;8.23;;;15.00;99.90;;;;;;5068978;28;20231;-38
2022/05/22 06:18:34;;;;;;;11.53;10.30;;;15.10;99.90;;;;;;5069401;28;20605;-38
2022/05/22 06:21:11;;;;;;;13.13;9.80;;;15.10;99.90;;;;;;5070000;28;20786;-40
2022/05/22 06:23:38;;;;;;;9.63;8.60;;;15.00;99.90;;;;;;5063682;28;20994;-38
2022/05/22 06:26:08;;;;;;;11.93;9.33;;;14.90;99.90;;;;;;5065486;28;20953;-38
2022/05/22 06:28:34;;;;;;;13.50;9.00;;;14.90;99.90;;;;;;5068757;28;20423;-38
2022/05/22 06:31:01;;;;;;;12.50;9.57;;;15.10;99.90;;;;;;5069921;28;20774;-38
2022/05/22 06:33:28;;;;;;;11.13;8.83;;;15.10;99.90;;;;;;5069779;28;20447;-38
2022/05/22 06:35:54;;;;;;;9.93;8.37;;;15.10;99.90;;;;;;5069664;28;20435;-38
2022/05/22 06:41:08;;;;;;;12.17;9.07;;;15.20;99.90;;;;;;5068240;28;20459;-39
2022/05/22 06:43:35;;;;;;;10.50;9.07;;;15.40;99.90;;;;;;5069508;28;20518;-39
2022/05/22 06:46:01;;;;;;;13.27;8.70;;;15.60;99.90;;;;;;5068274;28;20427;-38
2022/05/22 06:48:26;;;;;;;10.20;8.40;;;15.70;99.90;;;;;;5067068;28;20505;-38
2022/05/22 06:50:52;;;;;;;9.37;8.37;;;15.90;99.90;;;;;;5069393;28;20802;-38
2022/05/22 06:53:18;;;;;;;11.10;8.87;;;16.10;99.90;;;;;;5068015;28;20660;-38
2022/05/22 06:55:43;;;;;;;8.80;8.00;;;16.20;99.90;;;;;;5055345;28;20205;-38
2022/05/22 06:58:09;;;;;;;8.17;7.37;;;16.40;99.90;;;;;;5068739;28;20185;-38
2022/05/22 07:00:35;;;;;;;11.47;8.20;;;16.50;99.90;;;;;;5069262;28;20258;-38
2022/05/22 07:03:03;;;;;;;10.10;8.30;;;16.60;99.90;;;;;;5069251;28;20291;-38
2022/05/22 07:05:28;;;;;;;13.07;8.53;;;16.70;99.90;;;;;;5069242;28;20419;-39
2022/05/22 07:07:54;;;;;;;12.07;8.60;;;16.80;99.90;;;;;;5068302;28;20423;-39
2022/05/22 07:11:38;;;;;;;11.50;8.87;;;16.90;99.90;;;;;;5058631;28;20536;-38
2022/05/22 07:13:05;;;;;;;11.23;8.20;;;17.00;99.90;;;;;;5064539;28;20692;-38
2022/05/22 07:15:31;;;;;;;8.57;7.70;;;17.00;99.90;;;;;;5068897;28;20420;-38
2022/05/22 07:17:57;;;;;;;15.17;8.50;;;17.00;99.90;;;;;;5068541;28;20181;-39
2022/05/22 07:20:22;;;;;;;10.27;8.50;;;17.00;99.90;;;;;;5069244;28;20292;-38
2022/05/22 07:22:48;;;;;;;11.50;7.47;;;17.10;99.90;;;;;;5069307;28;20316;-38
2022/05/22 07:25:14;;;;;;;10.83;7.83;;;17.20;99.90;;;;;;5054254;28;20194;-38
2022/05/22 07:27:41;;;;;;;11.07;8.77;;;17.40;99.90;;;;;;5068328;28;20195;-39
2022/05/22 07:30:07;;;;;;;11.60;8.13;;;17.50;99.90;;;;;;5068908;28;20189;-38
2022/05/22 07:32:33;;;;;;;15.57;11.10;;;17.60;99.90;;;;;;5069021;28;20420;-38
2022/05/22 07:34:59;;;;;;;9.53;8.53;;;17.60;99.90;;;;;;5068767;28;20491;-38
2022/05/22 07:37:25;;;;;;;13.03;8.50;;;17.60;99.90;;;;;;5068365;28;20250;-38
2022/05/22 07:39:51;;;;;;;12.67;8.30;;;17.30;99.90;;;;;;5060789;28;20208;-38
2022/05/22 07:42:17;;;;;;;10.33;8.80;;;17.40;99.90;;;;;;5066001;28;20546;-38
2022/05/22 07:44:43;;;;;;;10.83;7.87;;;17.50;99.90;;;;;;5068647;28;20522;-38
2022/05/22 07:47:09;;;;;;;11.53;7.80;;;17.60;99.90;;;;;;5066899;28;20199;-38
2022/05/22 07:52:19;;;;;;;12.80;8.40;;;17.70;99.90;;;;;;5068500;28;20197;-38
2022/05/22 07:54:45;;;;;;;8.67;7.27;;;17.70;99.90;;;;;;5061793;28;20950;-39
2022/05/22 07:57:10;;;;;;;9.97;7.73;;;17.70;99.90;;;;;;5083902;28;20659;-38
2022/05/22 07:59:38;;;;;;;7.93;7.13;;;17.80;99.90;;;;;;5080842;28;20322;-39
2022/05/22 08:02:06;;;;;;;9.47;6.40;;;17.90;99.90;;;;;;5088688;28;20246;-39
2022/05/22 08:04:32;;;;;;;11.97;7.40;;;17.90;99.90;;;;;;5081437;28;20429;-38
2022/05/22 08:06:58;;;;;;;9.73;7.90;;;18.00;99.90;;;;;;5088063;28;20418;-39
2022/05/22 08:09:23;;;;;;;7.83;7.03;;;17.90;99.90;;;;;;5077388;28;20436;-40
2022/05/22 08:11:49;;;;;;;12.17;7.20;;;17.90;99.90;;;;;;5064985;28;20431;-38
2022/05/22 08:14:16;;;;;;;12.13;7.30;;;17.80;99.90;;;;;;5068625;28;20268;-39
2022/05/22 08:16:42;;;;;;;10.23;7.27;;;17.80;99.90;;;;;;5067871;28;20423;-40
2022/05/22 08:19:08;;;;;;;8.63;7.73;;;17.80;99.90;;;;;;5067714;28;20439;-39
2022/05/22 08:21:34;;;;;;;9.83;6.63;;;17.80;99.90;;;;;;5067431;28;20490;-39
2022/05/22 08:24:00;;;;;;;10.70;5.30;;;17.80;99.90;;;;;;5066732;28;20415;-39
2022/05/22 08:26:27;;;;;;;8.83;5.67;;;17.80;99.90;;;;;;5062529;28;20185;-39
2022/05/22 08:28:53;;;;;;;7.00;4.90;;;17.80;99.90;;;;;;5063158;28;20230;-38
2022/05/22 08:31:19;;;;;;;11.97;5.43;;;17.80;99.90;;;;;;5068103;28;20431;-38
2022/05/22 08:33:44;;;;;;;10.47;6.00;;;17.80;99.90;;;;;;5068241;28;20434;-39
2022/05/22 08:36:10;;;;;;;6.67;4.60;;;17.90;99.90;;;;;;5068339;28;20189;-39
2022/05/22 08:38:36;;;;;;;7.80;4.50;;;18.00;99.90;;;;;;5065877;28;20197;-38
2022/05/22 08:41:19;;;;;;;10.33;4.97;;;18.00;99.90;;;;;;5060661;28;20243;-39
2022/05/22 08:44:29;;;;;;;6.70;5.17;;;18.10;99.90;;;;;;5061101;28;20641;-38
2022/05/22 08:46:58;;;;;;;6.60;4.60;;;18.10;99.90;;;;;;5065459;28;20427;-38
2022/05/22 08:49:31;;;;;;;10.10;4.80;;;18.20;99.90;;;;;;5066761;28;20435;-38
2022/05/22 08:52:08;;;;;;;8.60;4.20;;;18.20;99.90;;;;;;5080026;28;20434;-38
2022/05/22 08:54:38;;;;;;;4.87;4.37;;;18.30;99.90;;;;;;5067812;28;20835;-39
2022/05/22 09:00:03;;;;;;;10.17;4.50;;;18.50;99.90;;;;;;5071601;28;20422;-38
2022/05/22 09:02:41;;;;;;;6.90;5.10;;;18.60;99.90;;;;;;5071040;28;20536;-40
2022/05/22 09:05:08;;;;;;;8.37;5.00;;;18.70;99.90;;;;;;5068905;28;20415;-39
2022/05/22 09:07:53;;;;;;;7.80;4.63;;;18.70;99.90;;;;;;5067755;28;20439;-39
2022/05/22 09:10:29;;;;;;;5.33;4.80;;;18.80;99.90;;;;;;5062596;28;20432;-39
2022/05/22 09:13:11;;;;;;;9.70;5.03;;;19.00;99.90;;;;;;5065566;28;20500;-39
2022/05/22 09:15:47;;;;;;;7.07;5.00;;;19.10;99.90;;;;;;5068770;28;20424;-39
2022/05/22 09:18:33;;;;;;;12.40;4.80;;;19.20;99.90;;;;;;5068915;28;20419;-40
2022/05/22 09:21:12;;;;;;;8.97;5.20;;;19.40;99.90;;;;;;5070415;28;20470;-39
2022/05/22 09:23:55;;;;;;;10.63;5.67;;;19.50;99.90;;;;;;5071288;28;20488;-39
2022/05/22 09:26:39;;;;;;;8.33;4.43;;;19.70;99.90;;;;;;5062812;28;20443;-40
2022/05/22 09:29:39;;;;;;;10.70;4.97;;;19.70;99.90;;;;;;5066458;28;20780;-39
2022/05/22 09:32:18;;;;;;;6.93;3.43;;;19.90;99.90;;;;;;5070516;28;20514;-39
2022/05/22 09:34:44;;;;;;;6.43;4.97;;;20.10;99.90;;;;;;5065428;28;20480;-39
2022/05/22 09:37:26;;;;;;;11.90;5.70;;;20.10;99.90;;;;;;5070203;28;20416;-38
2022/05/22 09:39:57;;;;;;;7.03;5.37;;;20.10;99.90;;;;;;5066719;28;20181;-39
2022/05/22 09:42:44;;;;;;;8.37;5.30;;;20.20;99.90;;;;;;5061142;28;21038;-39
2022/05/22 09:45:39;;;;;;;9.70;5.70;;;20.10;99.90;;;;;;5066994;28;20422;-39
2022/05/22 09:48:20;;;;;;;9.13;5.17;;;20.30;99.90;;;;;;5064280;28;20503;-39
2022/05/22 09:51:04;;;;;;;8.73;5.13;;;20.40;99.90;;;;;;5070581;28;20891;-39
2022/05/22 09:53:53;;;;;;;9.13;5.43;;;20.40;99.90;;;;;;5070824;28;20422;-39
2022/05/22 09:56:19;;;;;;;7.60;5.50;;;20.50;99.90;;;;;;5043314;28;20452;-39
2022/05/22 09:59:20;;;;;;;9.20;6.33;;;20.30;99.90;;;;;;5068042;28;20900;-39
2022/05/22 10:01:51;;;;;;;11.33;6.77;;;20.30;99.90;;;;;;5051517;28;20270;-39
2022/05/22 10:04:38;;;;;;;7.23;5.50;;;20.30;99.90;;;;;;5061694;28;20439;-39
2022/05/22 10:07:13;;;;;;;7.90;5.73;;;20.40;99.80;;;;;;5069591;28;20420;-39
2022/05/22 10:10:10;;;;;;;9.10;6.10;;;20.50;99.90;;;;;;5067743;28;20423;-40
2022/05/22 10:13:06;;;;;;;6.90;6.13;;;20.80;99.90;;;;;;5061523;28;20506;-39
2022/05/22 10:15:37;;;;;;;11.27;4.83;;;20.70;99.40;;;;;;5069649;28;20949;-39
2022/05/22 10:18:15;;;;;;;7.63;6.03;;;20.70;99.40;;;;;;5069390;28;20419;-39
2022/05/22 10:21:18;;;;;;;10.70;5.50;;;20.90;99.90;;;;;;5070172;28;20411;-39
2022/05/22 10:24:05;;;;;;;10.37;5.70;;;20.90;99.20;;;;;;5069821;28;20925;-39
2022/05/22 10:27:01;;;;;;;8.20;6.17;;;20.90;99.90;;;;;;5058832;28;20533;-38
2022/05/22 10:29:43;;;;;;;6.90;5.50;;;21.00;99.20;;;;;;5068347;28;20424;-40
2022/05/22 10:32:38;;;;;;;8.90;6.70;;;21.00;99.50;;;;;;5069900;28;20827;-38
2022/05/22 10:35:33;;;;;;;10.17;6.83;;;20.90;99.40;;;;;;5069930;28;21022;-39
2022/05/22 10:38:12;;;;;;;11.90;7.03;;;20.70;99.20;;;;;;5069076;28;20455;-39
2022/05/22 10:43:32;;;;;;;10.87;6.17;;;20.60;98.90;;;;;;5068666;28;20944;-39
2022/05/22 10:45:58;;;;;;;10.70;6.20;;;20.40;99.90;;;;;;5069314;28;20499;-39
2022/05/22 10:48:24;;;;;;;8.60;7.07;;;20.40;99.10;;;;;;5067367;28;20950;-39
2022/05/22 10:51:07;;;;;;;10.37;6.03;;;20.30;99.40;;;;;;5069001;28;20231;-39
2022/05/22 10:53:37;;;;;;;9.43;6.57;;;20.20;99.80;;;;;;5069379;28;20419;-39
2022/05/22 10:56:06;;;;;;;10.40;6.80;;;20.10;99.70;;;;;;5061291;28;20444;-39
2022/05/22 10:58:35;;;;;;;7.10;6.40;;;20.00;99.90;;;;;;5083357;28;20514;-40
2022/05/22 11:01:05;;;;;;;8.20;6.37;;;20.00;99.90;;;;;;5069452;28;20427;-39
2022/05/22 11:03:33;;;;;;;7.27;5.63;;;19.90;99.90;;;;;;5069315;28;20420;-39
2022/05/22 11:06:02;;;;;;;9.30;6.60;;;19.80;99.90;;;;;;5085005;28;21019;-39
2022/05/22 11:08:32;;;;;;;13.43;6.30;;;19.70;99.90;;;;;;5068655;28;20422;-39
2022/05/22 11:11:16;;;;;;;7.63;5.80;;;19.70;99.90;;;;;;5061682;28;20481;-39
2022/05/22 11:13:42;;;;;;;10.40;6.50;;;19.80;99.90;;;;;;5064901;28;20552;-40
2022/05/22 11:16:26;;;;;;;9.37;7.40;;;19.90;99.90;;;;;;5069035;28;21142;-39
2022/05/22 11:19:26;;;;;;;12.00;6.70;;;19.80;99.80;;;;;;5067486;28;20415;-39
2022/05/22 11:22:27;;;;;;;8.13;6.20;;;19.80;99.90;;;;;;5049030;28;20474;-38
2022/05/22 11:25:29;;;;;;;8.77;6.70;;;19.80;99.90;;;;;;5068911;28;20777;-39
2022/05/22 11:28:16;;;;;;;8.93;5.97;;;19.80;99.90;;;;;;5057615;28;20415;-39
2022/05/22 11:31:01;;;;;;;9.30;5.53;;;19.70;99.90;;;;;;5062164;28;20445;-40
2022/05/22 11:33:48;;;;;;;8.70;5.40;;;19.70;99.90;;;;;;5069222;28;20806;-38
2022/05/22 11:36:37;;;;;;;7.90;6.60;;;19.90;99.90;;;;;;5068778;28;20418;-39
2022/05/22 11:39:22;;;;;;;7.57;6.40;;;20.20;99.90;;;;;;5068826;28;20427;-39
2022/05/22 11:42:05;;;;;;;8.43;7.03;;;20.30;99.40;;;;;;5056539;28;20463;-39
2022/05/22 11:44:41;;;;;;;8.00;5.83;;;20.50;98.90;;;;;;5067889;28;20534;-40
2022/05/22 11:47:17;;;;;;;6.43;5.83;;;20.70;98.70;;;;;;5062315;28;20841;-39
2022/05/22 11:49:56;;;;;;;8.53;5.93;;;20.90;98.00;;;;;;5068703;28;20430;-39
2022/05/22 11:52:53;;;;;;;8.00;6.97;;;21.00;97.30;;;;;;5068713;28;20518;-39
2022/05/22 11:55:40;;;;;;;7.60;5.80;;;21.00;99.50;;;;;;5068786;28;20787;-39
2022/05/22 11:58:24;;;;;;;8.60;6.60;;;21.20;99.90;;;;;;5062932;28;20418;-39
2022/05/22 12:01:13;;;;;;;8.57;6.73;;;21.20;98.80;;;;;;5062074;28;20423;-39
2022/05/22 12:04:21;;;;;;;7.80;6.50;;;21.40;99.90;;;;;;5068743;28;20416;-40
2022/05/22 12:07:19;;;;;;;8.47;6.07;;;21.40;97.10;;;;;;5057124;28;20807;-39
2022/05/22 12:09:45;;;;;;;7.50;6.00;;;21.30;97.80;;;;;;5068836;28;20419;-39
2022/05/22 12:12:13;;;;;;;7.63;6.30;;;21.40;96.90;;;;;;5060473;28;20453;-40
2022/05/22 12:14:58;;;;;;;6.23;5.63;;;21.40;96.40;;;;;;5065376;28;20185;-40
2022/05/22 12:17:32;;;;;;;7.37;5.30;;;21.20;96.60;;;;;;5067938;28;20502;-45
2022/05/22 12:20:15;;;;;;;6.87;5.43;;;21.20;97.50;;;;;;5067120;28;20841;-41
2022/05/22 12:23:13;;;;;;;6.57;5.30;;;21.20;97.70;;;;;;5068297;28;20462;-39
2022/05/22 12:25:55;;;;;;;7.50;5.87;;;21.10;95.00;;;;;;5063435;28;20489;-40
2022/05/22 12:28:36;;;;;;;7.97;5.30;;;21.00;96.70;;;;;;5065296;28;20446;-39
2022/05/22 12:31:07;;;;;;;7.90;5.93;;;20.80;97.20;;;;;;5068541;28;20432;-41
2022/05/22 12:33:35;;;;;;;10.17;6.67;;;20.70;97.50;;;;;;5063083;28;20423;-40
2022/05/22 12:36:03;;;;;;;9.07;6.40;;;20.50;97.60;;;;;;5071982;28;20496;-39
2022/05/22 12:38:28;;;;;;;7.27;5.00;;;20.50;98.00;;;;;;5071293;28;20473;-39
2022/05/22 12:41:15;;;;;;;5.87;5.30;;;20.50;98.30;;;;;;5069944;28;20426;-39
2022/05/22 12:43:41;;;;;;;6.27;4.90;;;20.50;98.60;;;;;;5067462;28;20222;-39
2022/05/22 12:46:10;;;;;;;5.93;4.73;;;20.50;98.80;;;;;;5071922;28;20423;-44
2022/05/22 12:48:39;;;;;;;9.70;5.23;;;20.80;98.60;;;;;;5085198;28;20423;-39
2022/05/22 12:51:10;;;;;;;8.60;7.10;;;21.00;98.10;;;;;;5071648;28;20412;-44
2022/05/22 12:53:39;;;;;;;5.70;4.43;;;21.20;99.00;;;;;;5071727;28;20419;-41
2022/05/22 12:56:29;;;;;;;12.20;5.90;;;21.40;98.30;;;;;;5068944;28;20558;-40
2022/05/22 12:58:56;;;;;;;7.40;6.27;;;21.50;97.20;;;;;;5068014;28;20446;-39
2022/05/22 13:01:27;;;;;;;7.03;5.43;;;21.60;96.90;;;;;;5071398;28;20528;-41
2022/05/22 13:03:56;;;;;;;6.47;5.67;;;21.60;96.90;;;;;;5058973;28;20919;-40
2022/05/22 13:06:43;;;;;;;6.83;5.47;;;21.60;97.60;;;;;;5086174;28;20441;-40
2022/05/22 13:09:22;;;;;;;7.30;4.93;;;21.60;97.00;;;;;;5091143;28;20974;-39
2022/05/22 13:11:58;;;;;;;8.00;5.07;;;21.70;96.70;;;;;;5077576;28;20428;-39
2022/05/22 13:14:34;;;;;;;10.70;6.10;;;21.70;96.10;;;;;;5069802;28;20434;-39
2022/05/22 13:17:00;;;;;;;4.97;4.53;;;21.50;95.80;;;;;;5070913;28;20785;-41